This is the latest recevied weather packets stored in our database for station/object OE6ACM-14. If no packets are shown the sender has not sent any weather packets the latest 10 day(s).
| Time | Temp. | Humidity | Pressure | Rain* | Wind** | Luminosity | Snow |
|---|---|---|---|---|---|---|---|
| 1778052901 | 30° C | 23% | 920.1 hPa | - | - | - | - |
| 1778052601 | 30.56° C | 23% | 920.2 hPa | - | - | - | - |
| 1778052301 | 27.78° C | 23% | 920.3 hPa | - | - | - | - |
| 1778052001 | 28.89° C | 24% | 920.2 hPa | - | - | - | - |
| 1778051701 | 27.78° C | 26% | 920.4 hPa | - | - | - | - |
| 1778051401 | 26.11° C | 28% | 920.4 hPa | - | - | - | - |
| 1778051101 | 28.33° C | 28% | 920.4 hPa | - | - | - | - |
| 1778050801 | 27.78° C | 27% | 920.4 hPa | - | - | - | - |
| 1778050501 | 22.22° C | 35% | 920.6 hPa | - | - | - | - |
| 1778050201 | 23.89° C | 32% | 920.6 hPa | - | - | - | - |
| 1778049901 | 23.89° C | 31% | 920.7 hPa | - | - | - | - |
| 1778049601 | 23.33° C | 32% | 920.7 hPa | - | - | - | - |
| 1778049301 | 23.89° C | 33% | 920.7 hPa | - | - | - | - |
| 1778049001 | 23.89° C | 31% | 920.8 hPa | - | - | - | - |
| 1778048701 | 28.89° C | 26% | 920.6 hPa | - | - | - | - |
| 1778048401 | 25° C | 32% | 920.8 hPa | - | - | - | - |
| 1778048101 | 26.67° C | 30% | 920.7 hPa | - | - | - | - |
| 1778047801 | 24.44° C | 32% | 920.9 hPa | - | - | - | - |
| 1778047501 | 26.67° C | 30% | 920.9 hPa | - | - | - | - |
| 1778047201 | 27.78° C | 30% | 920.9 hPa | - | - | - | - |
| 1778046901 | 27.22° C | 30% | 921 hPa | - | - | - | - |
| 1778046601 | 23.89° C | 38% | 921.1 hPa | - | - | - | - |
| 1778046301 | 17.78° C | 55% | 921.3 hPa | - | - | - | - |
| 1778046001 | 7.78° C | 77% | 921.7 hPa | - | - | - | - |
| 1778045701 | 6.11° C | 74% | 921.8 hPa | - | - | - | - |
* Rain since midnight (hover to see other rain measurements)
** Current wind speed in m/s (hover to see current wind gust speed)